West Lincoln, Mississippi
Current Conditions -  °F | °C
As of 11:15 AM on Thursday 30 Oct 2014 (Local Time) from K1R7 Reporting Station
Clear Clear  
Wind Chill: 64°   Ceiling: Unl
Heat Index: 64°   Visibility: 9mi
Dew Point: 43°   Wind: 8mph
Humidity: 45%   Direction: 50°NE
Pressure: 30.17"   Gusts: NA
Location:  31.5898°N, 90.4722°W
Report Text: K1R7 301615Z AUTO 05007KT 010V010 9SM CLR 18/06 A3017 RMK AO2
Loading
Personal Weather Stations






























Interactive Weather Map
Tropical Storm Tracking
New forecast layout! Learn more

10-Day Weather Forecast

Advertisements
Track Severe Weather on mobile